Terminal Aerodrome Forecast
Issued by NWS Newport/Morehead City, NC

Home | Current Version | Previous Version | Text Only | Print | Product List | Glossary On
Versions: 1 2 3 4 5 6 7 8 9 10 11 12 13 14 15 16 17 18 19 20 21 22 23 24
000
FTUS42 KMHX 050539
TAFEWN
TAF
KEWN 050539Z 0506/0606 08005KT P6SM OVC005
     FM050900 08004KT 3SM BR OVC005
     FM051200 VRB03KT P6SM BKN007
     FM051700 VRB03KT P6SM -SHRA OVC015
     FM052300 30005KT P6SM VCSH BKN025
     FM060500 VRB04KT P6SM BKN030=

USA.gov is the U.S. government's official web portal to all federal, state and local government web resources and services.